Time;durP1;ratioP1;P1;durP2;ratioP2;P2;SDS_P1;SDS_P2;PMS_P1;PMS_P2;Temp;Humidity;BMP_temperature;BMP_pressure;BME280_temperature;BME280_humidity;BME280_pressure;Samples;Min_cycle;Max_cycle;Signal;HPM_P1;HPM_P2
2022/01/05 00:02:05;;;;;;;15.40;1.60;;;2.40;99.90;;;;;;5096104;28;20047;-77
2022/01/05 00:04:30;;;;;;;14.93;1.90;;;2.40;99.90;;;;;;5095948;28;20051;-77
2022/01/05 00:06:56;;;;;;;16.33;1.65;;;2.40;99.90;;;;;;5077832;28;20123;-77
2022/01/05 00:09:22;;;;;;;15.25;2.38;;;2.30;99.90;;;;;;5092730;28;20081;-77
2022/01/05 00:11:47;;;;;;;10.95;1.60;;;2.30;99.90;;;;;;5075693;28;20024;-77
2022/01/05 00:14:13;;;;;;;8.55;1.63;;;2.30;99.90;;;;;;5075692;28;20025;-76
2022/01/05 00:16:38;;;;;;;25.00;2.05;;;2.30;99.90;;;;;;5075515;28;20025;-77
2022/01/05 00:19:04;;;;;;;14.93;1.88;;;2.20;99.90;;;;;;5075634;28;20154;-77
2022/01/05 00:21:30;;;;;;;11.23;1.60;;;2.20;99.90;;;;;;5075671;28;20048;-77
2022/01/05 00:23:55;;;;;;;15.48;1.98;;;2.20;99.90;;;;;;5075343;28;20557;-77
2022/01/05 00:26:21;;;;;;;12.15;1.58;;;2.00;99.90;;;;;;5075558;28;20032;-77
2022/01/05 00:28:46;;;;;;;8.60;1.90;;;2.00;99.90;;;;;;5075125;28;20442;-77
2022/01/05 00:31:12;;;;;;;16.83;2.33;;;2.00;99.90;;;;;;5075315;28;20016;-77
2022/01/05 00:33:38;;;;;;;8.93;1.70;;;2.00;99.90;;;;;;5075525;28;20059;-77
2022/01/05 00:36:04;;;;;;;13.75;2.08;;;2.00;99.90;;;;;;5074943;28;20474;-76
2022/01/05 00:38:29;;;;;;;15.20;1.80;;;1.90;99.90;;;;;;5074939;28;20051;-77
2022/01/05 00:40:55;;;;;;;16.58;1.90;;;1.90;99.90;;;;;;5074875;28;20359;-77
2022/01/05 00:43:20;;;;;;;10.77;1.95;;;1.90;99.90;;;;;;5074281;28;20033;-77
2022/01/05 00:45:46;;;;;;;8.73;1.60;;;2.00;99.90;;;;;;5056864;28;20136;-77
2022/01/05 00:48:12;;;;;;;16.17;1.92;;;1.90;99.90;;;;;;5075014;28;20025;-77
2022/01/05 00:50:37;;;;;;;11.50;1.60;;;1.90;99.90;;;;;;5075058;28;20025;-77
2022/01/05 00:53:03;;;;;;;15.93;1.85;;;1.80;99.90;;;;;;5075141;28;20027;-77
2022/01/05 00:55:29;;;;;;;9.90;1.90;;;1.70;99.90;;;;;;5074989;28;20040;-76
2022/01/05 00:57:55;;;;;;;15.13;2.00;;;1.60;99.90;;;;;;5075137;28;20093;-76
2022/01/05 01:00:21;;;;;;;11.95;1.73;;;1.60;99.90;;;;;;5077452;28;20462;-76
2022/01/05 01:02:47;;;;;;;14.23;2.67;;;1.60;99.90;;;;;;5095147;28;20153;-76
2022/01/05 01:05:14;;;;;;;14.90;2.00;;;1.50;99.90;;;;;;5094661;28;20122;-76
2022/01/05 01:07:40;;;;;;;18.30;3.90;;;1.60;99.90;;;;;;5094626;28;20021;-76
2022/01/05 01:10:06;;;;;;;10.18;1.60;;;1.60;99.90;;;;;;5085245;28;20020;-76
2022/01/05 01:12:34;;;;;;;12.60;1.40;;;1.80;99.90;;;;;;5074873;28;20031;-76
2022/01/05 01:15:03;;;;;;;15.68;1.60;;;1.90;99.90;;;;;;5074675;28;20023;-76
2022/01/05 01:17:29;;;;;;;12.07;1.77;;;2.00;99.90;;;;;;5074571;28;20482;-76
2022/01/05 01:19:54;;;;;;;12.68;2.08;;;2.10;99.90;;;;;;5074554;28;20082;-77
2022/01/05 01:22:20;;;;;;;9.13;1.40;;;2.30;99.90;;;;;;5074673;28;20017;-77
2022/01/05 01:24:46;;;;;;;11.82;1.50;;;2.40;99.90;;;;;;5074409;28;20420;-76
2022/01/05 01:27:11;;;;;;;12.38;1.90;;;2.50;99.90;;;;;;5074351;28;20387;-76
2022/01/05 01:29:38;;;;;;;17.58;1.98;;;2.60;99.90;;;;;;5056736;28;20017;-76
2022/01/05 01:32:04;;;;;;;11.30;1.55;;;2.60;99.90;;;;;;5074369;28;20439;-76
2022/01/05 01:34:30;;;;;;;11.80;1.60;;;2.50;99.90;;;;;;5074396;28;20020;-77
2022/01/05 01:36:56;;;;;;;12.93;1.95;;;2.50;99.90;;;;;;5073757;28;20485;-76
2022/01/05 01:39:21;;;;;;;21.73;2.00;;;2.40;99.90;;;;;;5081261;28;20445;-76
2022/01/05 01:41:47;;;;;;;15.27;2.67;;;2.30;99.90;;;;;;5094295;28;20036;-76
2022/01/05 01:44:13;;;;;;;14.82;2.05;;;2.30;99.90;;;;;;5094186;28;20077;-76
2022/01/05 01:46:38;;;;;;;22.10;2.38;;;2.30;99.90;;;;;;5094280;28;20020;-76
2022/01/05 01:49:04;;;;;;;13.90;2.60;;;2.30;99.90;;;;;;5094167;28;20024;-76
2022/01/05 01:51:30;;;;;;;25.00;2.33;;;2.20;99.90;;;;;;5094158;28;20039;-77
2022/01/05 01:53:55;;;;;;;16.33;2.03;;;2.20;99.90;;;;;;5093947;28;20020;-76
2022/01/05 01:56:24;;;;;;;9.95;1.88;;;2.30;99.90;;;;;;5094011;28;20038;-77
2022/01/05 01:58:51;;;;;;;12.93;1.75;;;2.30;99.90;;;;;;5094350;28;20069;-77
2022/01/05 02:01:17;;;;;;;15.45;2.55;;;2.30;99.90;;;;;;5094059;28;20123;-77
2022/01/05 02:03:43;;;;;;;13.80;1.83;;;2.20;99.90;;;;;;5092637;28;20658;-77
2022/01/05 02:06:09;;;;;;;17.65;2.03;;;2.30;99.90;;;;;;5093837;28;20020;-77
2022/01/05 02:08:35;;;;;;;17.88;2.17;;;2.30;99.90;;;;;;5093793;28;20032;-76
2022/01/05 02:11:03;;;;;;;15.50;2.28;;;2.30;99.90;;;;;;5093781;28;20043;-76
2022/01/05 02:13:28;;;;;;;20.17;2.63;;;2.20;99.90;;;;;;5093559;28;20020;-77
2022/01/05 02:15:54;;;;;;;14.07;1.90;;;2.20;99.90;;;;;;5093690;28;20464;-76
2022/01/05 02:20:49;;;;;;;16.88;2.60;;;2.20;99.90;;;;;;5093705;28;20035;-76
2022/01/05 02:23:15;;;;;;;18.70;2.20;;;2.20;99.90;;;;;;5093491;28;20032;-76
2022/01/05 02:25:40;;;;;;;12.90;2.03;;;2.20;99.90;;;;;;5091935;28;20470;-77
2022/01/05 02:28:06;;;;;;;14.80;1.95;;;2.20;99.90;;;;;;5093357;28;20112;-77
2022/01/05 02:30:32;;;;;;;15.63;2.15;;;2.20;99.90;;;;;;5093416;28;20052;-76
2022/01/05 02:32:58;;;;;;;12.90;2.03;;;2.20;99.90;;;;;;5093484;28;20567;-76
2022/01/05 02:35:24;;;;;;;19.20;2.38;;;2.20;99.90;;;;;;5093246;28;20073;-76
2022/01/05 02:37:52;;;;;;;15.27;2.20;;;2.20;99.90;;;;;;5093166;28;20098;-76
2022/01/05 02:40:21;;;;;;;14.05;2.08;;;2.20;99.90;;;;;;5093261;28;20031;-77
2022/01/05 02:42:47;;;;;;;10.35;1.88;;;2.20;99.90;;;;;;5093229;28;20039;-76
2022/01/05 02:45:14;;;;;;;10.52;2.03;;;2.20;99.90;;;;;;5093186;28;20098;-76
2022/01/05 02:47:41;;;;;;;16.05;3.28;;;2.20;99.90;;;;;;5093526;28;20103;-77
2022/01/05 02:50:09;;;;;;;11.63;2.38;;;2.20;99.90;;;;;;5093311;28;20343;-77
2022/01/05 02:52:35;;;;;;;17.02;1.92;;;2.20;99.90;;;;;;5093065;28;20062;-77
2022/01/05 02:55:02;;;;;;;16.52;1.95;;;2.20;99.90;;;;;;5093052;28;20047;-76
2022/01/05 02:57:28;;;;;;;19.08;2.50;;;2.10;99.90;;;;;;5093102;28;20069;-76
2022/01/05 02:59:54;;;;;;;12.43;1.90;;;2.10;99.90;;;;;;5093145;28;20364;-76
2022/01/05 03:02:20;;;;;;;14.50;2.00;;;2.20;99.90;;;;;;5092793;28;20032;-77
2022/01/05 03:04:46;;;;;;;19.30;2.08;;;2.20;99.90;;;;;;5092854;28;20048;-77
2022/01/05 03:07:13;;;;;;;11.60;1.77;;;2.30;99.90;;;;;;5092979;28;20024;-76
2022/01/05 03:09:39;;;;;;;10.30;1.33;;;2.20;99.90;;;;;;5087555;28;20044;-76
2022/01/05 03:12:05;;;;;;;13.77;1.75;;;2.20;99.90;;;;;;5071224;28;20028;-76
2022/01/05 03:14:30;;;;;;;13.05;1.55;;;2.20;99.90;;;;;;5072440;28;20044;-76
2022/01/05 03:16:56;;;;;;;14.35;1.80;;;2.20;99.90;;;;;;5072615;28;20395;-77
2022/01/05 03:19:21;;;;;;;10.18;1.63;;;2.20;99.90;;;;;;5072811;28;20029;-77
2022/01/05 03:21:47;;;;;;;13.93;1.65;;;2.30;99.90;;;;;;5072408;28;20032;-76
2022/01/05 03:24:12;;;;;;;27.02;2.90;;;2.30;99.90;;;;;;5072383;28;20031;-77
2022/01/05 03:26:38;;;;;;;11.50;1.45;;;2.30;99.90;;;;;;5072509;28;20107;-76
2022/01/05 03:29:04;;;;;;;16.75;2.10;;;2.40;99.90;;;;;;5070939;28;20035;-76
2022/01/05 03:31:29;;;;;;;12.57;2.33;;;2.30;99.90;;;;;;5074202;28;20024;-77
2022/01/05 03:33:55;;;;;;;12.40;1.63;;;2.40;99.90;;;;;;5079097;28;20039;-77
2022/01/05 03:36:20;;;;;;;17.50;1.73;;;2.60;99.90;;;;;;5079201;28;20028;-76
2022/01/05 03:38:46;;;;;;;18.55;3.60;;;;;;;;;;5078908;28;20064;-77
2022/01/05 03:41:12;;;;;;;10.50;1.55;;;;;;;;;;5078584;28;20063;-76
2022/01/05 03:43:39;;;;;;;12.32;2.10;;;;;;;;;;5078969;28;20024;-77
2022/01/05 03:46:05;;;;;;;18.08;2.03;;;;;;;;;;5079156;28;20029;-77
2022/01/05 03:48:31;;;;;;;11.70;2.03;;;;;;;;;;5078866;28;20123;-77
2022/01/05 03:50:57;;;;;;;13.55;1.88;;;;;;;;;;5078804;28;20021;-77
2022/01/05 03:53:23;;;;;;;11.43;1.60;;;;;;;;;;5078880;28;20020;-77
2022/01/05 03:55:50;;;;;;;8.68;1.88;;;;;;;;;;5079117;28;20056;-77
2022/01/05 03:58:16;;;;;;;16.08;1.80;;;;;;;;;;5078987;28;20374;-77
2022/01/05 04:00:46;;;;;;;10.52;2.35;;;2.50;99.90;;;;;;5077673;28;20025;-76
2022/01/05 04:03:12;;;;;;;18.92;2.97;;;2.50;99.90;;;;;;5077393;28;20025;-77
2022/01/05 04:05:37;;;;;;;12.80;2.28;;;2.50;99.90;;;;;;5078940;28;20024;-77
2022/01/05 04:08:03;;;;;;;16.02;2.42;;;2.60;99.90;;;;;;5079055;28;20012;-77
2022/01/05 04:10:29;;;;;;;12.20;1.98;;;2.60;99.90;;;;;;5078671;28;20029;-77
2022/01/05 04:12:55;;;;;;;17.58;2.42;;;2.50;99.90;;;;;;5078690;28;20082;-77
2022/01/05 04:15:21;;;;;;;15.90;2.63;;;2.60;99.90;;;;;;5077524;28;20032;-77
2022/01/05 04:17:46;;;;;;;12.40;2.15;;;2.60;99.90;;;;;;5078473;28;20066;-77
2022/01/05 04:20:13;;;;;;;17.48;3.67;;;2.70;99.90;;;;;;5078780;28;20028;-77
2022/01/05 04:22:39;;;;;;;10.82;1.85;;;2.70;99.90;;;;;;5078224;28;20082;-77
2022/01/05 04:25:06;;;;;;;11.20;2.15;;;2.70;99.90;;;;;;5078400;28;20024;-77
2022/01/05 04:27:32;;;;;;;18.95;1.85;;;2.70;99.90;;;;;;5078668;28;20028;-77
2022/01/05 04:29:57;;;;;;;16.08;1.83;;;2.80;99.90;;;;;;5078521;28;20020;-77
2022/01/05 04:32:23;;;;;;;21.95;3.65;;;2.80;99.90;;;;;;5078765;28;20100;-77
2022/01/05 04:34:48;;;;;;;19.05;2.53;;;2.90;99.90;;;;;;5078636;28;20058;-77
2022/01/05 04:37:15;;;;;;;20.45;2.83;;;2.90;99.90;;;;;;5078607;28;20076;-77
2022/01/05 04:39:41;;;;;;;13.23;1.90;;;2.90;99.90;;;;;;5088381;28;20420;-77
2022/01/05 04:42:07;;;;;;;18.70;2.40;;;3.00;99.90;;;;;;5098497;28;20059;-77
2022/01/05 04:44:33;;;;;;;15.45;2.50;;;3.10;99.90;;;;;;5094473;28;20016;-77
2022/01/05 04:46:59;;;;;;;13.15;1.70;;;3.10;99.90;;;;;;5094164;28;20099;-77
2022/01/05 04:49:24;;;;;;;14.05;1.88;;;3.10;99.90;;;;;;5095481;28;20024;-76
2022/01/05 04:51:50;;;;;;;15.65;1.90;;;3.00;99.90;;;;;;5093965;28;20069;-76
2022/01/05 04:54:16;;;;;;;14.05;2.03;;;3.00;99.90;;;;;;5095440;28;20017;-77
2022/01/05 04:56:42;;;;;;;18.30;2.58;;;3.00;99.90;;;;;;5095431;28;20032;-78
2022/01/05 04:59:07;;;;;;;14.63;2.30;;;3.00;99.90;;;;;;5095333;28;20385;-77
2022/01/05 05:01:33;;;;;;;17.80;2.40;;;3.00;99.90;;;;;;5095324;28;20386;-76
2022/01/05 05:03:58;;;;;;;20.60;3.15;;;2.80;99.90;;;;;;5095114;28;20129;-77
2022/01/05 05:06:24;;;;;;;17.60;2.63;;;2.90;99.90;;;;;;5094701;28;20027;-77
2022/01/05 05:08:50;;;;;;;14.50;2.50;;;2.90;99.90;;;;;;5095047;28;20031;-77
2022/01/05 05:11:16;;;;;;;12.93;2.05;;;2.90;99.90;;;;;;5094696;28;20056;-77
2022/01/05 05:13:41;;;;;;;14.38;1.90;;;2.90;99.90;;;;;;5094576;28;20020;-76
2022/01/05 05:16:07;;;;;;;13.18;2.28;;;3.00;99.90;;;;;;5093311;28;20038;-77
2022/01/05 05:18:32;;;;;;;21.85;2.38;;;3.00;99.90;;;;;;5092768;28;20028;-77
2022/01/05 05:20:58;;;;;;;20.20;2.90;;;3.10;99.90;;;;;;5094834;28;20035;-76
2022/01/05 05:23:24;;;;;;;20.58;2.35;;;3.10;99.90;;;;;;5094560;28;20028;-76
2022/01/05 05:25:49;;;;;;;16.23;2.25;;;3.20;99.90;;;;;;5094915;28;20024;-77
2022/01/05 05:28:15;;;;;;;17.92;2.78;;;3.20;99.90;;;;;;5094841;28;20066;-77
2022/01/05 05:30:40;;;;;;;26.05;2.70;;;3.30;99.90;;;;;;5094852;28;20470;-77
2022/01/05 05:33:06;;;;;;;11.43;2.35;;;3.30;99.90;;;;;;5094535;28;20430;-77
2022/01/05 05:35:32;;;;;;;21.83;4.38;;;3.40;99.90;;;;;;5094387;28;20386;-76
2022/01/05 05:37:58;;;;;;;17.95;2.50;;;3.50;99.90;;;;;;5094143;28;20040;-77
2022/01/05 05:40:24;;;;;;;20.23;2.60;;;3.60;99.90;;;;;;5094357;28;20464;-77
2022/01/05 05:42:50;;;;;;;14.55;2.13;;;3.60;99.90;;;;;;5094571;28;20050;-77
2022/01/05 05:45:16;;;;;;;18.90;2.42;;;3.60;99.90;;;;;;5094259;28;20028;-77
2022/01/05 05:47:42;;;;;;;18.83;2.28;;;3.70;99.90;;;;;;5094368;28;20128;-76
2022/01/05 05:50:09;;;;;;;16.60;2.20;;;3.70;99.90;;;;;;5094294;28;20032;-76
2022/01/05 05:52:35;;;;;;;14.52;2.47;;;3.80;99.90;;;;;;5094331;28;20020;-77
2022/01/05 05:55:01;;;;;;;21.13;3.08;;;;;;;;;;5093781;28;20042;-77
2022/01/05 05:57:27;;;;;;;23.83;3.08;;;;;;;;;;5094069;28;20040;-77
2022/01/05 05:59:53;;;;;;;21.90;2.80;;;;;;;;;;5094046;28;20032;-76
2022/01/05 06:02:19;;;;;;;19.35;4.43;;;;;;;;;;5093813;28;20024;-77
2022/01/05 06:04:45;;;;;;;20.40;3.00;;;;;;;;;;5093679;28;20047;-77
2022/01/05 06:07:11;;;;;;;13.88;2.42;;;;;;;;;;5093960;28;20407;-77
2022/01/05 06:09:38;;;;;;;19.75;2.10;;;;;;;;;;5088877;28;20025;-78
2022/01/05 06:12:04;;;;;;;22.60;2.33;;;;;;;;;;5073646;28;20409;-77
2022/01/05 06:14:30;;;;;;;16.30;2.53;;;;;;;;;;5073405;28;20104;-77
2022/01/05 06:16:56;;;;;;;18.95;2.50;;;;;;;;;;5073472;28;20468;-77
2022/01/05 06:19:22;;;;;;;14.50;2.20;;;;;;;;;;5073291;28;20478;-77
2022/01/05 06:21:50;;;;;;;21.25;3.05;;;;;;;;;;5073295;28;20032;-77
2022/01/05 06:24:16;;;;;;;13.35;2.25;;;;;;;;;;5072225;28;20020;-76
2022/01/05 06:26:42;;;;;;;18.05;1.92;;;;;;;;;;5073017;28;20131;-77
2022/01/05 06:29:08;;;;;;;12.52;2.33;;;;;;;;;;5073286;28;20032;-77
2022/01/05 06:31:35;;;;;;;15.27;2.72;;;;;;;;;;5073251;28;20467;-78
2022/01/05 06:34:00;;;;;;;21.58;2.60;;;4.20;99.90;;;;;;5071855;28;20046;-77
2022/01/05 06:36:26;;;;;;;15.20;3.38;;;4.20;99.90;;;;;;5073358;28;20533;-77
2022/01/05 06:38:51;;;;;;;22.17;3.10;;;4.20;99.90;;;;;;5072762;28;20048;-77
2022/01/05 06:41:17;;;;;;;19.13;3.13;;;4.20;99.90;;;;;;5073536;28;20036;-76
2022/01/05 06:43:42;;;;;;;14.95;2.15;;;4.20;99.90;;;;;;5071428;28;20064;-76
2022/01/05 06:46:08;;;;;;;13.63;2.30;;;4.10;99.90;;;;;;5073000;28;20036;-76
2022/01/05 06:48:34;;;;;;;21.00;2.83;;;4.10;99.90;;;;;;5073001;28;20034;-77
2022/01/05 06:50:59;;;;;;;14.40;2.63;;;4.10;99.90;;;;;;5073128;28;20021;-77
2022/01/05 06:53:25;;;;;;;18.67;2.80;;;4.00;99.90;;;;;;5073132;28;20051;-77
2022/01/05 06:55:50;;;;;;;20.95;2.47;;;4.10;99.90;;;;;;5072914;28;20386;-78
2022/01/05 06:58:16;;;;;;;17.33;3.25;;;4.00;99.90;;;;;;5073086;28;20033;-78
2022/01/05 07:00:42;;;;;;;19.90;3.50;;;4.00;99.90;;;;;;5072963;28;20039;-78
2022/01/05 07:03:07;;;;;;;18.67;2.97;;;4.10;99.90;;;;;;5072890;28;20031;-77
2022/01/05 07:05:33;;;;;;;19.73;2.70;;;4.10;99.90;;;;;;5072505;28;20462;-77
2022/01/05 07:07:59;;;;;;;12.65;1.85;;;4.20;99.90;;;;;;5072372;28;20028;-77
2022/01/05 07:10:24;;;;;;;21.38;2.75;;;4.20;99.90;;;;;;5072728;28;20351;-77
2022/01/05 07:12:50;;;;;;;21.08;2.25;;;4.20;99.90;;;;;;5072602;28;20029;-77
2022/01/05 07:15:16;;;;;;;22.58;2.40;;;4.20;99.90;;;;;;5073044;28;20017;-77
2022/01/05 07:17:42;;;;;;;17.27;2.22;;;4.20;99.90;;;;;;5072827;28;20044;-76
2022/01/05 07:20:09;;;;;;;17.65;3.05;;;4.30;99.90;;;;;;5072627;28;20029;-77
2022/01/05 07:22:35;;;;;;;17.98;3.15;;;4.30;99.90;;;;;;5072632;28;20067;-76
2022/01/05 07:25:01;;;;;;;19.70;2.38;;;4.40;99.90;;;;;;5072675;28;20020;-77
2022/01/05 07:27:27;;;;;;;19.02;2.38;;;4.40;99.90;;;;;;5072354;28;20082;-77
2022/01/05 07:29:53;;;;;;;19.35;3.05;;;4.40;99.90;;;;;;5084508;28;20016;-77
2022/01/05 07:32:18;;;;;;;18.67;2.88;;;4.50;99.90;;;;;;5113145;28;20020;-77
2022/01/05 07:34:44;;;;;;;18.02;2.60;;;4.50;99.90;;;;;;5113104;28;20488;-77
2022/01/05 07:37:10;;;;;;;22.90;2.50;;;4.40;99.90;;;;;;5108090;28;20104;-74
2022/01/05 07:39:36;;;;;;;14.10;2.35;;;;;;;;;;5082670;28;20555;-76
2022/01/05 07:42:02;;;;;;;17.38;3.28;;;;;;;;;;5092943;28;20031;-76
2022/01/05 07:44:28;;;;;;;15.90;2.60;;;;;;;;;;5086704;28;20482;-76
2022/01/05 07:46:54;;;;;;;20.58;2.72;;;4.40;99.90;;;;;;5086413;28;20031;-76
2022/01/05 07:49:19;;;;;;;15.60;2.80;;;4.40;99.90;;;;;;5090829;28;20122;-76
2022/01/05 07:51:45;;;;;;;22.83;2.88;;;;;;;;;;5092043;28;20488;-76
2022/01/05 07:54:11;;;;;;;20.90;2.90;;;;;;;;;;5087966;28;20028;-75
2022/01/05 07:56:37;;;;;;;22.65;3.03;;;;;;;;;;5093071;28;20093;-75
2022/01/05 07:59:04;;;;;;;22.42;3.10;;;;;;;;;;5089546;28;20024;-75
2022/01/05 08:01:29;;;;;;;23.27;2.55;;;4.40;99.90;;;;;;5086740;28;20028;-76
2022/01/05 08:03:56;;;;;;;16.13;3.05;;;4.50;99.90;;;;;;5092039;28;20089;-77
2022/01/05 08:06:22;;;;;;;15.55;2.65;;;4.50;99.90;;;;;;5093639;28;20095;-77
2022/01/05 08:08:48;;;;;;;29.55;3.72;;;4.40;99.90;;;;;;5095543;28;20024;-77
2022/01/05 08:11:14;;;;;;;28.15;3.97;;;4.50;99.90;;;;;;5108538;28;20047;-76
2022/01/05 08:13:40;;;;;;;21.48;3.63;;;4.50;99.90;;;;;;5110647;28;20058;-76
2022/01/05 08:16:05;;;;;;;23.80;2.80;;;4.50;99.90;;;;;;5111166;28;20024;-76
2022/01/05 08:18:31;;;;;;;29.33;3.50;;;4.50;99.90;;;;;;5113480;28;20076;-76
2022/01/05 08:20:58;;;;;;;23.88;3.85;;;;;;;;;;5114735;27;20400;-76
2022/01/05 08:23:24;;;;;;;25.27;3.47;;;;;;;;;;5114586;28;20039;-76
2022/01/05 08:25:50;;;;;;;23.35;2.95;;;;;;;;;;5114839;28;20034;-76
2022/01/05 08:28:17;;;;;;;22.15;2.70;;;;;;;;;;5114723;28;20061;-76
2022/01/05 08:30:47;;;;;;;23.88;3.25;;;;;;;;;;5114587;28;20069;-75
2022/01/05 08:33:16;;;;;;;21.15;2.80;;;;;;;;;;5114966;28;20066;-76
2022/01/05 08:35:43;;;;;;;30.27;3.63;;;4.70;99.90;;;;;;5113972;28;20096;-76
2022/01/05 08:38:09;;;;;;;34.80;5.40;;;4.80;99.90;;;;;;5110350;28;20513;-76
2022/01/05 08:40:36;;;;;;;20.42;3.00;;;4.80;99.90;;;;;;5114690;28;20155;-76
2022/01/05 08:43:04;;;;;;;21.40;3.53;;;4.80;99.90;;;;;;5114085;28;20080;-76
2022/01/05 08:45:31;;;;;;;23.35;2.30;;;4.80;99.90;;;;;;5114368;28;20028;-76
2022/01/05 08:47:58;;;;;;;16.23;2.20;;;4.80;99.90;;;;;;5114151;28;20488;-76
2022/01/05 08:50:26;;;;;;;21.25;2.85;;;4.70;99.90;;;;;;5105118;28;20023;-76
2022/01/05 08:52:53;;;;;;;24.15;2.40;;;4.60;99.90;;;;;;5114690;28;20031;-76
2022/01/05 08:55:21;;;;;;;14.68;2.38;;;4.70;99.90;;;;;;5113202;28;20020;-76
2022/01/05 08:57:48;;;;;;;18.10;2.63;;;4.80;99.90;;;;;;5114328;28;20012;-76
2022/01/05 09:00:15;;;;;;;12.45;2.88;;;4.80;99.90;;;;;;5114513;28;20055;-76
2022/01/05 09:02:41;;;;;;;12.40;2.25;;;4.80;99.90;;;;;;5114839;28;20442;-77
2022/01/05 09:05:08;;;;;;;23.35;3.05;;;4.80;99.90;;;;;;5114609;28;20057;-77
2022/01/05 09:07:34;;;;;;;21.77;2.85;;;4.90;99.90;;;;;;5114457;28;20354;-76
2022/01/05 09:10:00;;;;;;;11.45;2.13;;;4.80;99.90;;;;;;5098271;28;20424;-75
2022/01/05 09:12:25;;;;;;;21.23;2.72;;;4.80;99.90;;;;;;5072752;28;20111;-77
2022/01/05 09:14:51;;;;;;;18.60;2.45;;;4.90;99.90;;;;;;5073600;28;20085;-76
2022/01/05 09:17:17;;;;;;;24.52;4.25;;;4.90;99.90;;;;;;5079940;28;20073;-78
2022/01/05 09:19:43;;;;;;;18.90;2.63;;;4.90;99.90;;;;;;5114296;28;20027;-77
2022/01/05 09:22:09;;;;;;;23.75;3.75;;;4.90;99.90;;;;;;5114854;28;20023;-77
2022/01/05 09:24:37;;;;;;;24.35;3.10;;;4.90;99.90;;;;;;5114364;28;20371;-75
2022/01/05 09:27:04;;;;;;;19.10;2.55;;;4.90;99.90;;;;;;5114591;28;20020;-76
2022/01/05 09:29:31;;;;;;;15.70;2.50;;;4.90;99.90;;;;;;5113923;28;20380;-77
2022/01/05 09:31:58;;;;;;;25.30;2.75;;;5.00;99.90;;;;;;5114535;28;20107;-78
2022/01/05 09:34:25;;;;;;;14.95;2.72;;;5.00;99.90;;;;;;5114612;28;20493;-78
2022/01/05 09:36:58;;;;;;;16.50;1.98;;;5.00;99.90;;;;;;5114485;28;20052;-77
2022/01/05 09:42:08;;;;;;;16.17;2.58;;;5.00;99.90;;;;;;5094421;28;20385;-77
2022/01/05 09:44:42;;;;;;;19.30;2.53;;;4.90;99.90;;;;;;5092331;28;20032;-78
2022/01/05 09:47:32;;;;;;;32.05;4.43;;;5.00;99.90;;;;;;5091823;28;20024;-79
2022/01/05 09:50:10;;;;;;;23.42;2.60;;;5.00;99.90;;;;;;5094361;28;20152;-79
2022/01/05 09:52:37;;;;;;;29.25;4.50;;;;;;;;;;5093555;28;20303;-78
2022/01/05 09:55:04;;;;;;;22.45;2.67;;;5.00;99.90;;;;;;5094586;28;20478;-78
2022/01/05 09:57:31;;;;;;;30.08;3.75;;;5.00;99.90;;;;;;5094630;28;20456;-78
2022/01/05 09:59:57;;;;;;;25.90;3.53;;;5.10;99.90;;;;;;5094560;28;20042;-79
2022/01/05 10:02:24;;;;;;;19.35;2.47;;;;;;;;;;5093974;28;20024;-78
2022/01/05 10:04:50;;;;;;;33.63;4.47;;;5.20;99.90;;;;;;5098548;28;20043;-78
2022/01/05 10:07:16;;;;;;;19.20;3.42;;;5.20;99.90;;;;;;5109577;28;20035;-77
2022/01/05 10:09:43;;;;;;;32.17;4.15;;;5.20;99.90;;;;;;5091688;28;20020;-78
2022/01/05 10:12:10;;;;;;;21.88;3.40;;;5.20;99.90;;;;;;5091919;28;20031;-79
2022/01/05 10:14:45;;;;;;;24.15;2.90;;;5.30;99.90;;;;;;5094025;28;20055;-76
2022/01/05 10:17:12;;;;;;;19.23;3.10;;;5.50;99.90;;;;;;5093841;28;20031;-77
2022/01/05 10:19:39;;;;;;;23.05;3.60;;;5.60;99.90;;;;;;5093312;28;20102;-77
2022/01/05 10:22:29;;;;;;;23.60;3.90;;;5.60;99.90;;;;;;5114090;28;20039;-78
2022/01/05 10:24:56;;;;;;;21.35;3.15;;;5.60;99.90;;;;;;5106989;28;20038;-77
2022/01/05 10:27:23;;;;;;;40.17;3.90;;;5.70;99.90;;;;;;5073292;28;20021;-77
2022/01/05 10:29:56;;;;;;;31.30;4.05;;;5.70;99.90;;;;;;5110098;28;20100;-77
2022/01/05 10:32:27;;;;;;;38.33;4.38;;;5.70;99.90;;;;;;5092026;28;20023;-78
2022/01/05 10:35:03;;;;;;;27.23;3.67;;;5.60;99.90;;;;;;5093138;28;20028;-77
2022/01/05 10:37:29;;;;;;;32.78;4.18;;;5.60;99.90;;;;;;5093048;28;20082;-77
2022/01/05 10:40:14;;;;;;;35.65;4.60;;;5.60;99.90;;;;;;5092937;28;20055;-76
2022/01/05 10:42:42;;;;;;;32.53;5.15;;;5.70;99.90;;;;;;5092968;28;20035;-77
2022/01/05 10:45:10;;;;;;;28.10;4.55;;;5.70;99.90;;;;;;5093244;28;20406;-78
2022/01/05 10:47:37;;;;;;;30.55;4.68;;;5.70;99.90;;;;;;5092889;28;20102;-78
2022/01/05 10:50:05;;;;;;;32.53;3.72;;;5.80;99.90;;;;;;5092594;28;20022;-78
2022/01/05 10:52:35;;;;;;;34.03;4.75;;;5.90;99.90;;;;;;5092936;28;20028;-76
2022/01/05 10:55:15;;;;;;;32.17;3.83;;;5.90;99.90;;;;;;5092822;28;20024;-76
2022/01/05 10:58:00;;;;;;;33.60;4.28;;;;;;;;;;5092780;28;20103;-77
2022/01/05 11:00:40;;;;;;;37.75;4.75;;;5.90;99.90;;;;;;5093043;28;20042;-77
2022/01/05 11:03:20;;;;;;;38.90;4.18;;;5.80;99.90;;;;;;5091628;28;20074;-76
2022/01/05 11:06:08;;;;;;;33.13;3.85;;;5.80;99.90;;;;;;5090273;28;20126;-77
2022/01/05 11:08:49;;;;;;;43.03;5.15;;;5.90;99.90;;;;;;5079102;28;20040;-78
2022/01/05 11:11:36;;;;;;;39.88;4.05;;;5.90;99.90;;;;;;5074837;28;20048;-78
2022/01/05 11:14:06;;;;;;;40.30;5.75;;;5.90;99.90;;;;;;5072797;28;20020;-77
2022/01/05 11:16:32;;;;;;;32.30;3.60;;;6.00;99.90;;;;;;5073008;28;20111;-78
2022/01/05 11:19:27;;;;;;;39.47;5.40;;;6.00;99.90;;;;;;5083404;28;20045;-77
2022/01/05 11:22:09;;;;;;;29.63;3.20;;;6.00;99.90;;;;;;5108369;28;20043;-78
2022/01/05 11:24:38;;;;;;;31.08;4.47;;;6.00;99.90;;;;;;5083841;28;20251;-76
2022/01/05 11:27:05;;;;;;;36.40;4.32;;;6.10;99.90;;;;;;5088119;28;20039;-76
2022/01/05 11:29:31;;;;;;;43.85;4.35;;;6.10;99.90;;;;;;5091727;28;20022;-76
2022/01/05 11:31:57;;;;;;;35.25;3.85;;;6.00;99.90;;;;;;5092045;28;20026;-76
2022/01/05 11:34:26;;;;;;;33.63;5.32;;;6.00;99.90;;;;;;5091903;28;20031;-75
2022/01/05 11:36:52;;;;;;;29.48;3.63;;;6.00;99.90;;;;;;5091950;28;20042;-76
2022/01/05 11:39:17;;;;;;;24.50;3.80;;;6.00;99.90;;;;;;5080259;28;20044;-76
2022/01/05 11:41:49;;;;;;;26.35;2.92;;;6.10;99.90;;;;;;5083315;28;20025;-76
2022/01/05 11:44:17;;;;;;;42.40;5.88;;;6.10;99.90;;;;;;5080304;28;20074;-76
2022/01/05 11:46:45;;;;;;;24.73;3.70;;;6.10;99.90;;;;;;5065224;28;20029;-75
2022/01/05 11:49:16;;;;;;;20.60;2.75;;;6.20;99.90;;;;;;5083092;28;20017;-75
2022/01/05 11:51:42;;;;;;;30.02;3.42;;;6.30;99.90;;;;;;5080624;28;20067;-76
2022/01/05 11:54:32;;;;;;;41.92;3.92;;;6.30;99.90;;;;;;5067797;28;20474;-76
2022/01/05 11:57:09;;;;;;;25.70;3.50;;;6.40;99.90;;;;;;5015300;28;20030;-75
2022/01/05 11:59:37;;;;;;;39.85;4.60;;;6.50;99.90;;;;;;5014163;28;20069;-76
2022/01/05 12:02:10;;;;;;;27.83;2.80;;;6.50;99.90;;;;;;5014733;28;20033;-76
2022/01/05 12:04:56;;;;;;;34.75;4.45;;;6.60;99.90;;;;;;5017372;28;20157;-76
2022/01/05 12:07:47;;;;;;;29.33;3.30;;;6.60;99.90;;;;;;5013305;28;20137;-74
2022/01/05 12:10:21;;;;;;;35.20;3.95;;;6.50;99.90;;;;;;5013361;28;20049;-77
2022/01/05 12:13:06;;;;;;;19.80;3.13;;;6.50;99.90;;;;;;5013847;28;20077;-77
2022/01/05 12:15:56;;;;;;;20.75;2.88;;;6.40;99.90;;;;;;5028712;28;20451;-77
2022/01/05 12:18:30;;;;;;;27.58;3.40;;;6.50;99.90;;;;;;5033832;28;20371;-77
2022/01/05 12:20:57;;;;;;;29.35;3.63;;;6.60;99.90;;;;;;5033650;28;20029;-77
2022/01/05 12:23:28;;;;;;;26.98;3.22;;;6.50;99.90;;;;;;5006120;28;20504;-78
2022/01/05 12:26:07;;;;;;;24.90;2.92;;;6.60;99.90;;;;;;5013459;28;20025;-79
2022/01/05 12:28:40;;;;;;;22.30;3.70;;;6.60;99.90;;;;;;4996659;28;20130;-78
2022/01/05 12:31:07;;;;;;;19.88;3.25;;;6.70;99.90;;;;;;5012960;28;20122;-77
2022/01/05 12:33:44;;;;;;;40.28;3.72;;;6.80;99.90;;;;;;5026418;28;20057;-76
2022/01/05 12:36:11;;;;;;;20.75;3.03;;;6.80;99.90;;;;;;5054659;28;20056;-76
2022/01/05 12:38:37;;;;;;;21.58;2.83;;;;;;;;;;5074828;28;20513;-76
2022/01/05 12:41:32;;;;;;;30.40;3.10;;;6.80;99.90;;;;;;5085118;28;20020;-76
2022/01/05 12:44:03;;;;;;;20.80;2.78;;;6.80;99.90;;;;;;5084796;28;20028;-76
2022/01/05 12:46:37;;;;;;;24.10;3.20;;;6.80;99.90;;;;;;5082920;28;20043;-75
2022/01/05 12:49:08;;;;;;;28.38;3.35;;;6.80;99.90;;;;;;5081965;28;20016;-76
2022/01/05 12:51:39;;;;;;;20.08;3.67;;;6.80;99.90;;;;;;5079070;28;20028;-77
2022/01/05 12:54:07;;;;;;;22.30;2.92;;;7.00;99.90;;;;;;5094544;28;20394;-77
2022/01/05 12:56:33;;;;;;;33.15;3.70;;;7.00;99.90;;;;;;5094662;28;20024;-75
2022/01/05 12:59:00;;;;;;;29.63;4.70;;;7.10;99.90;;;;;;5076353;28;20469;-76
2022/01/05 13:01:27;;;;;;;31.88;3.72;;;7.30;99.90;;;;;;5094607;28;20055;-77
2022/01/05 13:03:54;;;;;;;26.15;2.65;;;7.50;99.90;;;;;;5075966;28;20028;-76
2022/01/05 13:06:23;;;;;;;23.80;5.65;;;7.50;99.90;;;;;;5094179;28;20036;-75
2022/01/05 13:08:58;;;;;;;29.95;4.50;;;7.60;99.90;;;;;;5096957;28;20023;-76